sensor_id;sensor_type;location;lat;lon;timestamp;temperature;humidity
5870;DHT22;2961;47.702;9.410;2023-04-24T00:00:15;9.80;99.90
5870;DHT22;2961;47.702;9.410;2023-04-24T00:02:43;9.80;99.90
5870;DHT22;2961;47.702;9.410;2023-04-24T00:05:13;9.90;99.90
5870;DHT22;2961;47.702;9.410;2023-04-24T00:07:40;9.90;99.90
5870;DHT22;2961;47.702;9.410;2023-04-24T00:10:09;9.90;99.90
5870;DHT22;2961;47.702;9.410;2023-04-24T00:12:36;9.90;99.90
5870;DHT22;2961;47.702;9.410;2023-04-24T00:15:04;9.90;99.90
5870;DHT22;2961;47.702;9.410;2023-04-24T00:17:31;9.90;99.90
5870;DHT22;2961;47.702;9.410;2023-04-24T00:19:58;9.80;99.90
5870;DHT22;2961;47.702;9.410;2023-04-24T00:22:26;9.80;99.90
5870;DHT22;2961;47.702;9.410;2023-04-24T00:24:53;9.80;99.90
5870;DHT22;2961;47.702;9.410;2023-04-24T00:27:21;9.80;99.90
5870;DHT22;2961;47.702;9.410;2023-04-24T00:29:48;9.80;99.90
5870;DHT22;2961;47.702;9.410;2023-04-24T00:32:15;9.80;99.90
5870;DHT22;2961;47.702;9.410;2023-04-24T00:34:43;9.70;99.90
5870;DHT22;2961;47.702;9.410;2023-04-24T00:37:09;9.70;99.90
5870;DHT22;2961;47.702;9.410;2023-04-24T00:39:37;9.70;99.90
5870;DHT22;2961;47.702;9.410;2023-04-24T00:42:03;9.70;99.90
5870;DHT22;2961;47.702;9.410;2023-04-24T00:44:33;9.70;99.90
5870;DHT22;2961;47.702;9.410;2023-04-24T00:47:00;9.70;99.90
5870;DHT22;2961;47.702;9.410;2023-04-24T00:49:27;9.70;99.90
5870;DHT22;2961;47.702;9.410;2023-04-24T00:51:54;9.80;99.90
5870;DHT22;2961;47.702;9.410;2023-04-24T00:54:22;9.70;99.90
5870;DHT22;2961;47.702;9.410;2023-04-24T00:56:49;9.70;99.90
5870;DHT22;2961;47.702;9.410;2023-04-24T00:59:17;9.70;99.90
5870;DHT22;2961;47.702;9.410;2023-04-24T01:01:45;9.70;99.90
5870;DHT22;2961;47.702;9.410;2023-04-24T01:04:13;9.70;99.90
5870;DHT22;2961;47.702;9.410;2023-04-24T01:06:43;9.80;99.90
5870;DHT22;2961;47.702;9.410;2023-04-24T01:09:11;9.70;99.90
5870;DHT22;2961;47.702;9.410;2023-04-24T01:11:39;9.70;99.90
5870;DHT22;2961;47.702;9.410;2023-04-24T01:14:07;9.70;99.90
5870;DHT22;2961;47.702;9.410;2023-04-24T01:16:35;9.70;99.90
5870;DHT22;2961;47.702;9.410;2023-04-24T01:19:05;9.70;99.90
5870;DHT22;2961;47.702;9.410;2023-04-24T01:21:35;9.60;99.90
5870;DHT22;2961;47.702;9.410;2023-04-24T01:24:05;9.70;99.90
5870;DHT22;2961;47.702;9.410;2023-04-24T01:26:32;9.80;99.90
5870;DHT22;2961;47.702;9.410;2023-04-24T01:29:00;9.80;99.90
5870;DHT22;2961;47.702;9.410;2023-04-24T01:31:26;9.80;99.90
5870;DHT22;2961;47.702;9.410;2023-04-24T01:33:54;9.80;99.90
5870;DHT22;2961;47.702;9.410;2023-04-24T01:36:21;9.80;99.90
5870;DHT22;2961;47.702;9.410;2023-04-24T01:38:49;9.70;99.90
5870;DHT22;2961;47.702;9.410;2023-04-24T01:41:17;9.70;99.90
5870;DHT22;2961;47.702;9.410;2023-04-24T01:43:44;9.60;99.90
5870;DHT22;2961;47.702;9.410;2023-04-24T01:46:11;9.60;99.90
5870;DHT22;2961;47.702;9.410;2023-04-24T01:48:38;9.60;99.90
5870;DHT22;2961;47.702;9.410;2023-04-24T01:51:04;9.70;99.90
5870;DHT22;2961;47.702;9.410;2023-04-24T01:53:31;9.50;99.90
5870;DHT22;2961;47.702;9.410;2023-04-24T01:55:58;9.50;99.90
5870;DHT22;2961;47.702;9.410;2023-04-24T01:58:27;9.50;99.90
5870;DHT22;2961;47.702;9.410;2023-04-24T02:00:56;9.60;99.90
5870;DHT22;2961;47.702;9.410;2023-04-24T02:03:23;9.70;99.90
5870;DHT22;2961;47.702;9.410;2023-04-24T02:05:49;9.60;99.90
5870;DHT22;2961;47.702;9.410;2023-04-24T02:08:16;9.50;99.90
5870;DHT22;2961;47.702;9.410;2023-04-24T02:10:43;9.50;99.90
5870;DHT22;2961;47.702;9.410;2023-04-24T02:13:10;9.50;99.90
5870;DHT22;2961;47.702;9.410;2023-04-24T02:15:38;9.50;99.90
5870;DHT22;2961;47.702;9.410;2023-04-24T02:18:05;9.40;99.90
5870;DHT22;2961;47.702;9.410;2023-04-24T02:20:32;9.50;99.90
5870;DHT22;2961;47.702;9.410;2023-04-24T02:23:01;9.40;99.90
5870;DHT22;2961;47.702;9.410;2023-04-24T02:25:27;9.50;99.90
5870;DHT22;2961;47.702;9.410;2023-04-24T02:27:54;9.50;99.90
5870;DHT22;2961;47.702;9.410;2023-04-24T02:30:21;9.50;99.90
5870;DHT22;2961;47.702;9.410;2023-04-24T02:32:49;9.50;99.90
5870;DHT22;2961;47.702;9.410;2023-04-24T02:35:16;9.70;99.90
5870;DHT22;2961;47.702;9.410;2023-04-24T02:37:43;9.60;99.90
5870;DHT22;2961;47.702;9.410;2023-04-24T02:40:10;9.50;99.90
5870;DHT22;2961;47.702;9.410;2023-04-24T02:42:37;9.40;99.90
5870;DHT22;2961;47.702;9.410;2023-04-24T02:45:05;9.40;99.90
5870;DHT22;2961;47.702;9.410;2023-04-24T02:47:31;9.40;99.90
5870;DHT22;2961;47.702;9.410;2023-04-24T02:50:00;9.40;99.90
5870;DHT22;2961;47.702;9.410;2023-04-24T02:52:26;9.30;99.90
5870;DHT22;2961;47.702;9.410;2023-04-24T02:54:53;9.40;99.90
5870;DHT22;2961;47.702;9.410;2023-04-24T02:57:20;9.40;99.90
5870;DHT22;2961;47.702;9.410;2023-04-24T02:59:47;9.30;99.90
5870;DHT22;2961;47.702;9.410;2023-04-24T03:02:13;9.40;99.90
5870;DHT22;2961;47.702;9.410;2023-04-24T03:04:40;9.50;99.90
5870;DHT22;2961;47.702;9.410;2023-04-24T03:07:09;9.40;99.90
5870;DHT22;2961;47.702;9.410;2023-04-24T03:09:36;9.40;99.90
5870;DHT22;2961;47.702;9.410;2023-04-24T03:12:03;9.40;99.90
5870;DHT22;2961;47.702;9.410;2023-04-24T03:14:30;9.30;99.90
5870;DHT22;2961;47.702;9.410;2023-04-24T03:16:57;9.30;99.90
5870;DHT22;2961;47.702;9.410;2023-04-24T03:19:24;9.30;99.90
5870;DHT22;2961;47.702;9.410;2023-04-24T03:21:50;9.30;99.90
5870;DHT22;2961;47.702;9.410;2023-04-24T03:24:19;9.30;99.90
5870;DHT22;2961;47.702;9.410;2023-04-24T03:26:46;9.30;99.90
5870;DHT22;2961;47.702;9.410;2023-04-24T03:29:12;9.40;99.90
5870;DHT22;2961;47.702;9.410;2023-04-24T03:31:39;9.40;99.90
5870;DHT22;2961;47.702;9.410;2023-04-24T03:34:06;9.40;99.90
5870;DHT22;2961;47.702;9.410;2023-04-24T03:36:33;9.40;99.90
5870;DHT22;2961;47.702;9.410;2023-04-24T03:38:59;9.50;99.90
5870;DHT22;2961;47.702;9.410;2023-04-24T03:41:27;9.40;99.90
5870;DHT22;2961;47.702;9.410;2023-04-24T03:43:55;9.30;99.90
5870;DHT22;2961;47.702;9.410;2023-04-24T03:46:22;9.30;99.90
5870;DHT22;2961;47.702;9.410;2023-04-24T03:48:49;9.20;99.90
5870;DHT22;2961;47.702;9.410;2023-04-24T03:51:16;9.20;99.90
5870;DHT22;2961;47.702;9.410;2023-04-24T03:53:43;9.30;99.90
5870;DHT22;2961;47.702;9.410;2023-04-24T03:56:09;9.20;99.90
5870;DHT22;2961;47.702;9.410;2023-04-24T03:58:37;9.20;99.90
5870;DHT22;2961;47.702;9.410;2023-04-24T04:01:04;9.10;99.90
5870;DHT22;2961;47.702;9.410;2023-04-24T04:03:31;9.30;99.90
5870;DHT22;2961;47.702;9.410;2023-04-24T04:05:58;9.10;99.90
5870;DHT22;2961;47.702;9.410;2023-04-24T04:08:26;9.30;99.90
5870;DHT22;2961;47.702;9.410;2023-04-24T04:10:52;9.20;99.90
5870;DHT22;2961;47.702;9.410;2023-04-24T04:13:19;9.10;99.90
5870;DHT22;2961;47.702;9.410;2023-04-24T04:15:47;9.20;99.90
5870;DHT22;2961;47.702;9.410;2023-04-24T04:18:14;9.10;99.90
5870;DHT22;2961;47.702;9.410;2023-04-24T04:20:41;9.10;99.90
5870;DHT22;2961;47.702;9.410;2023-04-24T04:23:08;9.10;99.90
5870;DHT22;2961;47.702;9.410;2023-04-24T04:25:35;9.10;99.90
5870;DHT22;2961;47.702;9.410;2023-04-24T04:28:02;9.10;99.90
5870;DHT22;2961;47.702;9.410;2023-04-24T04:30:28;9.00;99.90
5870;DHT22;2961;47.702;9.410;2023-04-24T04:32:59;9.20;99.90
5870;DHT22;2961;47.702;9.410;2023-04-24T04:35:25;9.20;99.90
5870;DHT22;2961;47.702;9.410;2023-04-24T04:37:52;9.10;99.90
5870;DHT22;2961;47.702;9.410;2023-04-24T04:40:19;9.10;99.90
5870;DHT22;2961;47.702;9.410;2023-04-24T04:42:46;9.10;99.90
5870;DHT22;2961;47.702;9.410;2023-04-24T04:45:13;9.10;99.90
5870;DHT22;2961;47.702;9.410;2023-04-24T04:47:42;9.20;99.90
5870;DHT22;2961;47.702;9.410;2023-04-24T04:50:12;9.10;99.90
5870;DHT22;2961;47.702;9.410;2023-04-24T04:52:39;9.10;99.90
5870;DHT22;2961;47.702;9.410;2023-04-24T04:55:06;9.10;99.90
5870;DHT22;2961;47.702;9.410;2023-04-24T04:57:33;9.10;99.90
5870;DHT22;2961;47.702;9.410;2023-04-24T05:00:00;9.20;99.90
5870;DHT22;2961;47.702;9.410;2023-04-24T05:02:27;9.20;99.90
5870;DHT22;2961;47.702;9.410;2023-04-24T05:04:54;9.10;99.90
5870;DHT22;2961;47.702;9.410;2023-04-24T05:07:22;9.10;99.90
5870;DHT22;2961;47.702;9.410;2023-04-24T05:09:49;9.20;99.90
5870;DHT22;2961;47.702;9.410;2023-04-24T05:12:17;9.10;99.90
5870;DHT22;2961;47.702;9.410;2023-04-24T05:14:43;9.20;99.90
5870;DHT22;2961;47.702;9.410;2023-04-24T05:17:10;9.30;99.90
5870;DHT22;2961;47.702;9.410;2023-04-24T05:19:37;9.20;99.90
5870;DHT22;2961;47.702;9.410;2023-04-24T05:22:04;9.30;99.90
5870;DHT22;2961;47.702;9.410;2023-04-24T05:24:33;9.30;99.90
5870;DHT22;2961;47.702;9.410;2023-04-24T05:27:00;9.40;99.90
5870;DHT22;2961;47.702;9.410;2023-04-24T05:29:27;9.40;99.90
5870;DHT22;2961;47.702;9.410;2023-04-24T05:31:56;9.40;99.90
5870;DHT22;2961;47.702;9.410;2023-04-24T05:34:23;9.40;99.90
5870;DHT22;2961;47.702;9.410;2023-04-24T05:36:50;9.50;99.90
5870;DHT22;2961;47.702;9.410;2023-04-24T05:39:17;9.40;99.90
5870;DHT22;2961;47.702;9.410;2023-04-24T05:41:46;9.40;99.90
5870;DHT22;2961;47.702;9.410;2023-04-24T05:44:13;9.40;99.90
5870;DHT22;2961;47.702;9.410;2023-04-24T05:46:39;9.30;99.90
5870;DHT22;2961;47.702;9.410;2023-04-24T05:49:06;9.30;99.90
5870;DHT22;2961;47.702;9.410;2023-04-24T05:51:33;9.20;99.90
5870;DHT22;2961;47.702;9.410;2023-04-24T05:54:00;9.20;99.90
5870;DHT22;2961;47.702;9.410;2023-04-24T05:56:28;9.10;99.90
5870;DHT22;2961;47.702;9.410;2023-04-24T05:58:56;9.10;99.90
5870;DHT22;2961;47.702;9.410;2023-04-24T06:01:23;9.10;99.90
5870;DHT22;2961;47.702;9.410;2023-04-24T06:03:50;9.10;99.90
5870;DHT22;2961;47.702;9.410;2023-04-24T06:06:18;9.00;99.90
5870;DHT22;2961;47.702;9.410;2023-04-24T06:08:45;9.10;99.90
5870;DHT22;2961;47.702;9.410;2023-04-24T06:11:12;9.10;99.90
5870;DHT22;2961;47.702;9.410;2023-04-24T06:13:39;9.20;99.90
5870;DHT22;2961;47.702;9.410;2023-04-24T06:16:07;9.30;99.90
5870;DHT22;2961;47.702;9.410;2023-04-24T06:18:34;9.60;99.90
5870;DHT22;2961;47.702;9.410;2023-04-24T06:21:01;10.00;99.90
5870;DHT22;2961;47.702;9.410;2023-04-24T06:23:27;10.30;99.90
5870;DHT22;2961;47.702;9.410;2023-04-24T06:25:54;10.40;99.90
5870;DHT22;2961;47.702;9.410;2023-04-24T06:28:21;10.40;99.90
5870;DHT22;2961;47.702;9.410;2023-04-24T06:30:48;10.40;99.90
5870;DHT22;2961;47.702;9.410;2023-04-24T06:33:16;10.40;99.90
5870;DHT22;2961;47.702;9.410;2023-04-24T06:35:43;10.50;99.90
5870;DHT22;2961;47.702;9.410;2023-04-24T06:38:10;11.30;99.90
5870;DHT22;2961;47.702;9.410;2023-04-24T06:40:37;12.40;99.90
5870;DHT22;2961;47.702;9.410;2023-04-24T06:43:04;12.70;99.90
5870;DHT22;2961;47.702;9.410;2023-04-24T06:45:31;12.90;99.90
5870;DHT22;2961;47.702;9.410;2023-04-24T06:47:58;12.90;99.90
5870;DHT22;2961;47.702;9.410;2023-04-24T06:50:26;12.70;99.90
5870;DHT22;2961;47.702;9.410;2023-04-24T06:52:53;12.10;99.90
5870;DHT22;2961;47.702;9.410;2023-04-24T06:55:20;11.70;99.90
5870;DHT22;2961;47.702;9.410;2023-04-24T06:57:46;11.50;99.90
5870;DHT22;2961;47.702;9.410;2023-04-24T07:00:14;11.80;99.90
5870;DHT22;2961;47.702;9.410;2023-04-24T07:02:41;12.30;99.90
5870;DHT22;2961;47.702;9.410;2023-04-24T07:05:08;12.40;99.90
5870;DHT22;2961;47.702;9.410;2023-04-24T07:07:36;12.40;99.90
5870;DHT22;2961;47.702;9.410;2023-04-24T07:10:06;12.70;99.90
5870;DHT22;2961;47.702;9.410;2023-04-24T07:12:34;12.70;99.90
5870;DHT22;2961;47.702;9.410;2023-04-24T07:15:01;12.70;99.90
5870;DHT22;2961;47.702;9.410;2023-04-24T07:17:28;12.70;99.90
5870;DHT22;2961;47.702;9.410;2023-04-24T07:19:54;13.80;99.90
5870;DHT22;2961;47.702;9.410;2023-04-24T07:22:21;15.10;99.90
5870;DHT22;2961;47.702;9.410;2023-04-24T07:24:49;15.40;99.90
5870;DHT22;2961;47.702;9.410;2023-04-24T07:27:16;15.40;99.90
5870;DHT22;2961;47.702;9.410;2023-04-24T07:29:43;15.40;99.90
5870;DHT22;2961;47.702;9.410;2023-04-24T07:32:10;15.30;99.90
5870;DHT22;2961;47.702;9.410;2023-04-24T07:34:36;15.00;99.90
5870;DHT22;2961;47.702;9.410;2023-04-24T07:37:03;14.20;99.90
5870;DHT22;2961;47.702;9.410;2023-04-24T07:39:30;13.90;99.90
5870;DHT22;2961;47.702;9.410;2023-04-24T07:41:58;13.80;99.90
5870;DHT22;2961;47.702;9.410;2023-04-24T07:44:26;13.60;99.90
5870;DHT22;2961;47.702;9.410;2023-04-24T07:46:53;13.60;99.90
5870;DHT22;2961;47.702;9.410;2023-04-24T07:49:20;13.60;99.90
5870;DHT22;2961;47.702;9.410;2023-04-24T07:51:47;13.60;99.90
5870;DHT22;2961;47.702;9.410;2023-04-24T07:54:14;13.40;99.90
5870;DHT22;2961;47.702;9.410;2023-04-24T07:56:41;13.70;99.90
5870;DHT22;2961;47.702;9.410;2023-04-24T07:59:10;14.30;99.90
5870;DHT22;2961;47.702;9.410;2023-04-24T08:01:37;14.40;99.90
5870;DHT22;2961;47.702;9.410;2023-04-24T08:04:04;14.40;99.90
5870;DHT22;2961;47.702;9.410;2023-04-24T08:06:31;14.20;99.90
5870;DHT22;2961;47.702;9.410;2023-04-24T08:08:58;13.50;99.90
5870;DHT22;2961;47.702;9.410;2023-04-24T08:11:25;13.30;99.90
5870;DHT22;2961;47.702;9.410;2023-04-24T08:13:52;12.90;99.90
5870;DHT22;2961;47.702;9.410;2023-04-24T08:16:21;12.90;99.90
5870;DHT22;2961;47.702;9.410;2023-04-24T08:18:49;13.60;99.90
5870;DHT22;2961;47.702;9.410;2023-04-24T08:21:16;14.30;99.90
5870;DHT22;2961;47.702;9.410;2023-04-24T08:23:44;14.30;99.90
5870;DHT22;2961;47.702;9.410;2023-04-24T08:26:11;14.10;99.90
5870;DHT22;2961;47.702;9.410;2023-04-24T08:28:38;14.10;99.90
5870;DHT22;2961;47.702;9.410;2023-04-24T08:31:05;13.90;99.90
5870;DHT22;2961;47.702;9.410;2023-04-24T08:33:33;13.60;99.90
5870;DHT22;2961;47.702;9.410;2023-04-24T08:36:00;13.30;99.90
5870;DHT22;2961;47.702;9.410;2023-04-24T08:38:28;13.20;99.90
5870;DHT22;2961;47.702;9.410;2023-04-24T08:40:55;13.20;99.90
5870;DHT22;2961;47.702;9.410;2023-04-24T08:43:22;13.40;99.90
5870;DHT22;2961;47.702;9.410;2023-04-24T08:45:50;13.20;99.90
5870;DHT22;2961;47.702;9.410;2023-04-24T08:48:18;13.20;99.90
5870;DHT22;2961;47.702;9.410;2023-04-24T08:50:47;13.10;99.90
5870;DHT22;2961;47.702;9.410;2023-04-24T08:53:14;13.20;99.90
5870;DHT22;2961;47.702;9.410;2023-04-24T08:55:43;13.30;99.90
5870;DHT22;2961;47.702;9.410;2023-04-24T08:58:13;13.30;99.90
5870;DHT22;2961;47.702;9.410;2023-04-24T09:00:40;13.20;99.90
5870;DHT22;2961;47.702;9.410;2023-04-24T09:03:13;13.20;99.90
5870;DHT22;2961;47.702;9.410;2023-04-24T09:05:40;13.30;99.90
5870;DHT22;2961;47.702;9.410;2023-04-24T09:08:13;13.20;99.90
5870;DHT22;2961;47.702;9.410;2023-04-24T09:10:41;13.20;99.90
5870;DHT22;2961;47.702;9.410;2023-04-24T09:13:07;13.30;99.90
5870;DHT22;2961;47.702;9.410;2023-04-24T09:15:35;13.30;99.90
5870;DHT22;2961;47.702;9.410;2023-04-24T09:18:02;13.40;99.90
5870;DHT22;2961;47.702;9.410;2023-04-24T09:20:29;13.30;99.90
5870;DHT22;2961;47.702;9.410;2023-04-24T09:22:57;13.40;99.90
5870;DHT22;2961;47.702;9.410;2023-04-24T09:25:40;13.70;99.90
5870;DHT22;2961;47.702;9.410;2023-04-24T09:28:07;14.10;99.90
5870;DHT22;2961;47.702;9.410;2023-04-24T09:30:33;14.40;99.90
5870;DHT22;2961;47.702;9.410;2023-04-24T09:33:10;14.30;99.90
5870;DHT22;2961;47.702;9.410;2023-04-24T09:35:40;14.30;99.90
5870;DHT22;2961;47.702;9.410;2023-04-24T09:38:07;14.40;99.90
5870;DHT22;2961;47.702;9.410;2023-04-24T09:40:35;14.40;99.90
5870;DHT22;2961;47.702;9.410;2023-04-24T09:43:02;14.20;99.90
5870;DHT22;2961;47.702;9.410;2023-04-24T09:45:35;14.20;99.90
5870;DHT22;2961;47.702;9.410;2023-04-24T09:48:03;14.40;99.90
5870;DHT22;2961;47.702;9.410;2023-04-24T09:50:31;14.30;99.90
5870;DHT22;2961;47.702;9.410;2023-04-24T09:53:02;14.20;99.90
5870;DHT22;2961;47.702;9.410;2023-04-24T09:55:30;14.30;99.90
5870;DHT22;2961;47.702;9.410;2023-04-24T09:58:00;14.30;99.90
5870;DHT22;2961;47.702;9.410;2023-04-24T10:00:32;14.20;99.90
5870;DHT22;2961;47.702;9.410;2023-04-24T10:02:59;14.20;99.90
5870;DHT22;2961;47.702;9.410;2023-04-24T10:05:28;14.20;99.90
5870;DHT22;2961;47.702;9.410;2023-04-24T10:08:00;14.20;99.90
5870;DHT22;2961;47.702;9.410;2023-04-24T10:10:28;14.10;99.90
5870;DHT22;2961;47.702;9.410;2023-04-24T10:12:55;14.00;99.90
5870;DHT22;2961;47.702;9.410;2023-04-24T10:15:24;14.10;99.90
5870;DHT22;2961;47.702;9.410;2023-04-24T10:17:52;14.20;99.90
5870;DHT22;2961;47.702;9.410;2023-04-24T10:20:20;14.10;99.90
5870;DHT22;2961;47.702;9.410;2023-04-24T10:22:48;13.90;99.80
5870;DHT22;2961;47.702;9.410;2023-04-24T10:25:18;14.00;99.90
5870;DHT22;2961;47.702;9.410;2023-04-24T10:27:46;13.80;99.90
5870;DHT22;2961;47.702;9.410;2023-04-24T10:30:13;13.60;99.90
5870;DHT22;2961;47.702;9.410;2023-04-24T10:32:42;13.40;98.90
5870;DHT22;2961;47.702;9.410;2023-04-24T10:35:09;13.40;98.40
5870;DHT22;2961;47.702;9.410;2023-04-24T10:37:38;13.50;98.40
5870;DHT22;2961;47.702;9.410;2023-04-24T10:40:07;13.60;99.10
5870;DHT22;2961;47.702;9.410;2023-04-24T10:42:35;13.70;97.00
5870;DHT22;2961;47.702;9.410;2023-04-24T10:45:05;13.80;96.40
5870;DHT22;2961;47.702;9.410;2023-04-24T10:47:39;14.10;98.50
5870;DHT22;2961;47.702;9.410;2023-04-24T10:50:10;14.10;94.90
5870;DHT22;2961;47.702;9.410;2023-04-24T10:52:46;13.80;95.70
5870;DHT22;2961;47.702;9.410;2023-04-24T10:55:13;13.80;95.20
5870;DHT22;2961;47.702;9.410;2023-04-24T10:58:01;13.70;97.70
5870;DHT22;2961;47.702;9.410;2023-04-24T11:00:28;13.60;97.50
5870;DHT22;2961;47.702;9.410;2023-04-24T11:02:54;13.60;96.10
5870;DHT22;2961;47.702;9.410;2023-04-24T11:05:51;13.70;97.40
5870;DHT22;2961;47.702;9.410;2023-04-24T11:08:24;13.60;94.60
5870;DHT22;2961;47.702;9.410;2023-04-24T11:10:58;13.50;95.00
5870;DHT22;2961;47.702;9.410;2023-04-24T11:13:27;13.60;95.80
5870;DHT22;2961;47.702;9.410;2023-04-24T11:16:20;13.70;95.40
5870;DHT22;2961;47.702;9.410;2023-04-24T11:18:50;14.10;96.60
5870;DHT22;2961;47.702;9.410;2023-04-24T11:21:22;14.30;96.40
5870;DHT22;2961;47.702;9.410;2023-04-24T11:23:49;14.40;95.10
5870;DHT22;2961;47.702;9.410;2023-04-24T11:26:18;14.40;96.70
5870;DHT22;2961;47.702;9.410;2023-04-24T11:28:46;14.30;95.60
5870;DHT22;2961;47.702;9.410;2023-04-24T11:31:36;14.20;95.90
5870;DHT22;2961;47.702;9.410;2023-04-24T11:34:08;14.10;96.00
5870;DHT22;2961;47.702;9.410;2023-04-24T11:36:36;14.20;95.70
5870;DHT22;2961;47.702;9.410;2023-04-24T11:39:03;14.20;95.90
5870;DHT22;2961;47.702;9.410;2023-04-24T11:41:31;14.30;94.40
5870;DHT22;2961;47.702;9.410;2023-04-24T11:43:58;14.20;93.90
5870;DHT22;2961;47.702;9.410;2023-04-24T11:46:28;14.40;93.70
5870;DHT22;2961;47.702;9.410;2023-04-24T11:48:55;14.50;94.30
5870;DHT22;2961;47.702;9.410;2023-04-24T11:51:22;14.60;92.70
5870;DHT22;2961;47.702;9.410;2023-04-24T11:53:52;14.70;92.00
5870;DHT22;2961;47.702;9.410;2023-04-24T11:56:19;14.70;92.50
5870;DHT22;2961;47.702;9.410;2023-04-24T11:58:47;14.50;91.90
5870;DHT22;2961;47.702;9.410;2023-04-24T12:01:14;14.40;91.90
5870;DHT22;2961;47.702;9.410;2023-04-24T12:03:41;14.40;92.30
5870;DHT22;2961;47.702;9.410;2023-04-24T12:06:12;14.20;91.90
5870;DHT22;2961;47.702;9.410;2023-04-24T12:08:39;14.10;92.20
5870;DHT22;2961;47.702;9.410;2023-04-24T12:11:07;14.10;93.60
5870;DHT22;2961;47.702;9.410;2023-04-24T12:13:35;14.20;93.10
5870;DHT22;2961;47.702;9.410;2023-04-24T12:16:02;14.30;93.30
5870;DHT22;2961;47.702;9.410;2023-04-24T12:18:30;14.30;92.60
5870;DHT22;2961;47.702;9.410;2023-04-24T12:21:14;14.10;92.60
5870;DHT22;2961;47.702;9.410;2023-04-24T12:23:43;14.10;93.60
5870;DHT22;2961;47.702;9.410;2023-04-24T12:26:11;14.20;93.40
5870;DHT22;2961;47.702;9.410;2023-04-24T12:28:38;14.30;92.30
5870;DHT22;2961;47.702;9.410;2023-04-24T12:31:06;14.20;91.60
5870;DHT22;2961;47.702;9.410;2023-04-24T12:33:34;14.30;92.20
5870;DHT22;2961;47.702;9.410;2023-04-24T12:36:01;14.40;93.20
5870;DHT22;2961;47.702;9.410;2023-04-24T12:38:52;14.60;94.00
5870;DHT22;2961;47.702;9.410;2023-04-24T12:41:34;14.70;93.70
5870;DHT22;2961;47.702;9.410;2023-04-24T12:44:01;14.70;93.20
5870;DHT22;2961;47.702;9.410;2023-04-24T12:46:27;14.70;93.10
5870;DHT22;2961;47.702;9.410;2023-04-24T12:48:54;14.60;92.40
5870;DHT22;2961;47.702;9.410;2023-04-24T12:51:21;14.50;92.70
5870;DHT22;2961;47.702;9.410;2023-04-24T12:53:49;14.70;92.60
5870;DHT22;2961;47.702;9.410;2023-04-24T12:56:16;14.70;91.20
5870;DHT22;2961;47.702;9.410;2023-04-24T12:58:44;14.70;93.10
5870;DHT22;2961;47.702;9.410;2023-04-24T13:01:10;14.80;93.80
5870;DHT22;2961;47.702;9.410;2023-04-24T13:03:37;14.70;94.10
5870;DHT22;2961;47.702;9.410;2023-04-24T13:06:04;14.70;93.10
5870;DHT22;2961;47.702;9.410;2023-04-24T13:08:31;14.70;92.80
5870;DHT22;2961;47.702;9.410;2023-04-24T13:10:57;14.70;92.40
5870;DHT22;2961;47.702;9.410;2023-04-24T13:13:24;14.50;92.40
5870;DHT22;2961;47.702;9.410;2023-04-24T13:15:52;14.40;91.70
5870;DHT22;2961;47.702;9.410;2023-04-24T13:18:19;14.30;93.00
5870;DHT22;2961;47.702;9.410;2023-04-24T13:20:46;14.40;91.40
5870;DHT22;2961;47.702;9.410;2023-04-24T13:23:12;14.40;91.90
5870;DHT22;2961;47.702;9.410;2023-04-24T13:25:40;14.60;92.20
5870;DHT22;2961;47.702;9.410;2023-04-24T13:28:07;14.70;91.80
5870;DHT22;2961;47.702;9.410;2023-04-24T13:30:34;14.80;91.60
5870;DHT22;2961;47.702;9.410;2023-04-24T13:33:02;14.80;91.00
5870;DHT22;2961;47.702;9.410;2023-04-24T13:35:32;14.90;92.10
5870;DHT22;2961;47.702;9.410;2023-04-24T13:37:59;15.00;91.20
5870;DHT22;2961;47.702;9.410;2023-04-24T13:40:27;15.30;92.90
5870;DHT22;2961;47.702;9.410;2023-04-24T13:42:53;15.40;91.00
5870;DHT22;2961;47.702;9.410;2023-04-24T13:45:20;15.50;90.30
5870;DHT22;2961;47.702;9.410;2023-04-24T13:47:47;15.60;89.70
5870;DHT22;2961;47.702;9.410;2023-04-24T13:50:15;15.60;91.10
5870;DHT22;2961;47.702;9.410;2023-04-24T13:52:42;15.70;89.80
5870;DHT22;2961;47.702;9.410;2023-04-24T13:55:09;15.60;89.20
5870;DHT22;2961;47.702;9.410;2023-04-24T13:57:36;15.60;88.30
5870;DHT22;2961;47.702;9.410;2023-04-24T14:00:03;15.40;86.10
5870;DHT22;2961;47.702;9.410;2023-04-24T14:02:31;15.40;87.10
5870;DHT22;2961;47.702;9.410;2023-04-24T14:04:58;15.30;87.50
5870;DHT22;2961;47.702;9.410;2023-04-24T14:07:26;15.30;89.70
5870;DHT22;2961;47.702;9.410;2023-04-24T14:09:52;15.30;87.90
5870;DHT22;2961;47.702;9.410;2023-04-24T14:12:20;15.20;88.10
5870;DHT22;2961;47.702;9.410;2023-04-24T14:14:47;15.30;89.70
5870;DHT22;2961;47.702;9.410;2023-04-24T14:17:13;15.30;88.90
5870;DHT22;2961;47.702;9.410;2023-04-24T14:19:40;15.30;90.20
5870;DHT22;2961;47.702;9.410;2023-04-24T14:22:07;15.30;90.10
5870;DHT22;2961;47.702;9.410;2023-04-24T14:24:35;15.20;90.10
5870;DHT22;2961;47.702;9.410;2023-04-24T14:27:02;15.10;88.40
5870;DHT22;2961;47.702;9.410;2023-04-24T14:29:29;15.00;90.70
5870;DHT22;2961;47.702;9.410;2023-04-24T14:31:56;15.00;89.10
5870;DHT22;2961;47.702;9.410;2023-04-24T14:34:22;14.90;87.80
5870;DHT22;2961;47.702;9.410;2023-04-24T14:36:49;15.00;90.10
5870;DHT22;2961;47.702;9.410;2023-04-24T14:39:16;15.00;91.70
5870;DHT22;2961;47.702;9.410;2023-04-24T14:41:44;15.10;91.60
5870;DHT22;2961;47.702;9.410;2023-04-24T14:44:11;15.10;90.50
5870;DHT22;2961;47.702;9.410;2023-04-24T14:46:37;15.00;87.80
5870;DHT22;2961;47.702;9.410;2023-04-24T14:49:04;15.00;91.50
5870;DHT22;2961;47.702;9.410;2023-04-24T14:51:35;15.00;88.30
5870;DHT22;2961;47.702;9.410;2023-04-24T14:54:01;15.00;89.70
5870;DHT22;2961;47.702;9.410;2023-04-24T14:56:28;15.20;87.50
5870;DHT22;2961;47.702;9.410;2023-04-24T14:58:56;15.10;88.50
5870;DHT22;2961;47.702;9.410;2023-04-24T15:01:23;15.20;87.10
5870;DHT22;2961;47.702;9.410;2023-04-24T15:03:50;15.20;86.60
5870;DHT22;2961;47.702;9.410;2023-04-24T15:06:17;15.20;90.30
5870;DHT22;2961;47.702;9.410;2023-04-24T15:08:44;15.30;90.10
5870;DHT22;2961;47.702;9.410;2023-04-24T15:11:11;15.30;87.00
5870;DHT22;2961;47.702;9.410;2023-04-24T15:13:44;15.30;90.00
5870;DHT22;2961;47.702;9.410;2023-04-24T15:16:12;15.40;91.00
5870;DHT22;2961;47.702;9.410;2023-04-24T15:18:39;15.50;91.00
5870;DHT22;2961;47.702;9.410;2023-04-24T15:21:06;15.30;84.80
5870;DHT22;2961;47.702;9.410;2023-04-24T15:23:33;15.20;86.50
5870;DHT22;2961;47.702;9.410;2023-04-24T15:26:00;15.00;89.00
5870;DHT22;2961;47.702;9.410;2023-04-24T15:28:27;14.90;87.50
5870;DHT22;2961;47.702;9.410;2023-04-24T15:30:54;15.00;89.20
5870;DHT22;2961;47.702;9.410;2023-04-24T15:33:22;15.00;87.40
5870;DHT22;2961;47.702;9.410;2023-04-24T15:35:49;14.80;87.90
5870;DHT22;2961;47.702;9.410;2023-04-24T15:38:16;14.70;86.30
5870;DHT22;2961;47.702;9.410;2023-04-24T15:40:42;14.50;87.80
5870;DHT22;2961;47.702;9.410;2023-04-24T15:43:10;14.40;89.80
5870;DHT22;2961;47.702;9.410;2023-04-24T15:45:37;14.40;88.40
5870;DHT22;2961;47.702;9.410;2023-04-24T15:48:04;14.30;90.80
5870;DHT22;2961;47.702;9.410;2023-04-24T15:50:32;14.30;91.40
5870;DHT22;2961;47.702;9.410;2023-04-24T15:52:59;14.30;90.90
5870;DHT22;2961;47.702;9.410;2023-04-24T15:55:27;14.50;91.40
5870;DHT22;2961;47.702;9.410;2023-04-24T15:57:54;14.50;90.60
5870;DHT22;2961;47.702;9.410;2023-04-24T16:00:21;14.40;90.50
5870;DHT22;2961;47.702;9.410;2023-04-24T16:02:47;14.50;92.10
5870;DHT22;2961;47.702;9.410;2023-04-24T16:05:15;14.50;90.40
5870;DHT22;2961;47.702;9.410;2023-04-24T16:07:45;14.50;90.50
5870;DHT22;2961;47.702;9.410;2023-04-24T16:10:12;14.70;90.30